Fecha, hora, temperatura, viento dirección y velocidad, humedad y presión.

  • 22-05-2019 16:00:00 | 18.00°C | Oeste |6.00 km/h | 67.00% | 990.80 hPa
  • 22-05-2019 15:00:00 | 17.40°C | Norte |3.00 km/h | 66.00% | 990.90 hPa
  • 22-05-2019 14:00:00 | 16.30°C | Noroeste |8.00 km/h | 79.00% | 991.10 hPa
  • 22-05-2019 13:00:00 | 16.60°C | Noroeste |8.00 km/h | 77.00% | 991.30 hPa
  • 22-05-2019 12:00:00 | 16.90°C | Sur |10.00 km/h | 72.00% | 990.90 hPa
  • 22-05-2019 11:00:00 | 17.10°C | Sur |7.00 km/h | 66.00% | 990.50 hPa
  • 22-05-2019 10:00:00 | 18.50°C | Norte |2.00 km/h | 62.00% | 990.10 hPa
  • 22-05-2019 09:00:00 | 16.30°C | Noroeste |6.00 km/h | 61.00% | 989.90 hPa
  • 22-05-2019 08:00:00 | 15.60°C | Oeste |8.00 km/h | 58.00% | 989.40 hPa
  • 22-05-2019 07:00:00 | 15.50°C | Oeste |7.00 km/h | 56.00% | 989.20 hPa
  • 22-05-2019 06:00:00 | 14.50°C | Sudoeste |8.00 km/h | 66.00% | 989.50 hPa
  • 22-05-2019 05:00:00 | 14.90°C | Sudoeste |9.00 km/h | 60.00% | 989.60 hPa
  • 22-05-2019 04:00:00 | 15.80°C | Sur |10.00 km/h | 55.00% | 989.70 hPa
  • 22-05-2019 03:00:00 | 16.10°C | Sudeste |11.00 km/h | 51.00% | 989.90 hPa
  • 22-05-2019 02:00:00 | 16.40°C | Este |12.00 km/h | 49.00% | 990.30 hPa
  • 22-05-2019 01:00:00 | 16.90°C | Este |19.00 km/h | 47.00% | 990.40 hPa
  • 22-05-2019 00:00:00 | 16.00°C | Este |24.00 km/h | 53.00% | 990.40 hPa
  • 21-05-2019 23:00:00 | 15.40°C | Nordeste |30.00 km/h | 58.00% | 990.10 hPa
  • 21-05-2019 22:00:00 | 15.90°C | Nordeste |35.00 km/h | 57.00% | 989.40 hPa
  • 21-05-2019 21:00:00 | 15.90°C | Nordeste |28.00 km/h | 66.00% | 989.40 hPa
  • 21-05-2019 20:00:00 | 16.20°C | Norte |27.00 km/h | 69.00% | 989.30 hPa
  • 21-05-2019 19:00:00 | 16.80°C | Norte |24.00 km/h | 64.00% | 989.40 hPa
  • 21-05-2019 18:00:00 | 16.30°C | Norte |23.00 km/h | 67.00% | 989.50 hPa
  • 21-05-2019 17:00:00 | 15.60°C | Norte |27.00 km/h | 74.00% | 989.70 hPa
    • diseño web asturias Información sobre el estado de las mareas, altura de la marejada, temperatura del agua y otros datos de Gijón en Asturias.

      Surf Gijón